sensor_id;sensor_type;location;lat;lon;timestamp;pressure;altitude;pressure_sealevel;temperature;humidity
21361;BME280;10839;43.206;23.550;2023-05-09T00:01:33;97595.13;;;13.40;100.00
21361;BME280;10839;43.206;23.550;2023-05-09T00:04:00;97612.94;;;13.28;100.00
21361;BME280;10839;43.206;23.550;2023-05-09T00:06:26;97609.53;;;13.13;100.00
21361;BME280;10839;43.206;23.550;2023-05-09T00:08:55;97600.81;;;13.11;100.00
21361;BME280;10839;43.206;23.550;2023-05-09T00:11:21;97598.69;;;13.06;100.00
21361;BME280;10839;43.206;23.550;2023-05-09T00:17:00;97595.91;;;13.21;100.00
21361;BME280;10839;43.206;23.550;2023-05-09T00:19:26;97595.22;;;12.84;100.00
21361;BME280;10839;43.206;23.550;2023-05-09T00:21:52;97597.22;;;12.76;100.00
21361;BME280;10839;43.206;23.550;2023-05-09T00:24:18;97583.84;;;12.61;100.00
21361;BME280;10839;43.206;23.550;2023-05-09T00:26:44;97581.38;;;12.66;100.00
21361;BME280;10839;43.206;23.550;2023-05-09T00:29:09;97587.28;;;12.76;100.00
21361;BME280;10839;43.206;23.550;2023-05-09T00:31:35;97590.56;;;12.72;100.00
21361;BME280;10839;43.206;23.550;2023-05-09T00:34:01;97586.88;;;12.79;100.00
21361;BME280;10839;43.206;23.550;2023-05-09T00:36:27;97595.78;;;13.08;100.00
21361;BME280;10839;43.206;23.550;2023-05-09T00:38:54;97590.16;;;13.03;100.00
21361;BME280;10839;43.206;23.550;2023-05-09T00:41:20;97589.19;;;12.55;100.00
21361;BME280;10839;43.206;23.550;2023-05-09T00:43:46;97586.22;;;12.43;100.00
21361;BME280;10839;43.206;23.550;2023-05-09T00:46:12;97589.09;;;12.42;100.00
21361;BME280;10839;43.206;23.550;2023-05-09T00:48:37;97596.16;;;12.43;100.00
21361;BME280;10839;43.206;23.550;2023-05-09T00:51:03;97593.19;;;12.10;100.00
21361;BME280;10839;43.206;23.550;2023-05-09T00:53:29;97598.72;;;12.02;100.00
21361;BME280;10839;43.206;23.550;2023-05-09T00:55:55;97603.00;;;12.18;100.00
21361;BME280;10839;43.206;23.550;2023-05-09T00:58:22;97601.00;;;12.26;100.00
21361;BME280;10839;43.206;23.550;2023-05-09T01:00:48;97598.44;;;12.18;100.00
21361;BME280;10839;43.206;23.550;2023-05-09T01:03:15;97600.13;;;12.19;100.00
21361;BME280;10839;43.206;23.550;2023-05-09T01:11:10;97596.06;;;11.52;100.00
21361;BME280;10839;43.206;23.550;2023-05-09T01:14:07;97614.44;;;11.63;100.00
21361;BME280;10839;43.206;23.550;2023-05-09T01:22:11;97618.72;;;11.72;100.00
21361;BME280;10839;43.206;23.550;2023-05-09T01:27:32;97622.59;;;11.84;100.00
21361;BME280;10839;43.206;23.550;2023-05-09T01:30:03;97628.00;;;11.84;100.00
21361;BME280;10839;43.206;23.550;2023-05-09T01:32:31;97619.28;;;11.53;100.00
21361;BME280;10839;43.206;23.550;2023-05-09T01:34:59;97615.19;;;11.57;100.00
21361;BME280;10839;43.206;23.550;2023-05-09T01:37:33;97602.38;;;11.59;100.00
21361;BME280;10839;43.206;23.550;2023-05-09T01:40:05;97610.94;;;11.48;100.00
21361;BME280;10839;43.206;23.550;2023-05-09T01:42:41;97608.63;;;11.45;100.00
21361;BME280;10839;43.206;23.550;2023-05-09T01:45:09;97620.13;;;11.53;100.00
21361;BME280;10839;43.206;23.550;2023-05-09T01:47:37;97614.75;;;11.53;100.00
21361;BME280;10839;43.206;23.550;2023-05-09T01:50:05;97624.69;;;11.53;100.00
21361;BME280;10839;43.206;23.550;2023-05-09T01:52:32;97619.81;;;11.63;100.00
21361;BME280;10839;43.206;23.550;2023-05-09T01:55:00;97621.25;;;11.44;100.00
21361;BME280;10839;43.206;23.550;2023-05-09T01:57:28;97627.09;;;11.48;100.00
21361;BME280;10839;43.206;23.550;2023-05-09T01:59:56;97626.44;;;11.75;100.00
21361;BME280;10839;43.206;23.550;2023-05-09T02:02:27;97622.97;;;12.23;100.00
21361;BME280;10839;43.206;23.550;2023-05-09T02:04:55;97634.38;;;12.46;100.00
21361;BME280;10839;43.206;23.550;2023-05-09T02:07:23;97632.50;;;12.68;100.00
21361;BME280;10839;43.206;23.550;2023-05-09T02:09:54;97624.59;;;12.66;100.00
21361;BME280;10839;43.206;23.550;2023-05-09T02:12:23;97647.09;;;12.73;100.00
21361;BME280;10839;43.206;23.550;2023-05-09T02:14:49;97642.47;;;12.67;100.00
21361;BME280;10839;43.206;23.550;2023-05-09T02:17:15;97635.56;;;12.93;100.00
21361;BME280;10839;43.206;23.550;2023-05-09T02:19:42;97644.19;;;12.75;100.00
21361;BME280;10839;43.206;23.550;2023-05-09T02:22:09;97639.63;;;12.75;100.00
21361;BME280;10839;43.206;23.550;2023-05-09T02:24:37;97640.38;;;12.69;100.00
21361;BME280;10839;43.206;23.550;2023-05-09T02:27:03;97651.69;;;12.79;100.00
21361;BME280;10839;43.206;23.550;2023-05-09T02:29:44;97645.31;;;12.87;100.00
21361;BME280;10839;43.206;23.550;2023-05-09T02:32:34;97648.25;;;12.64;100.00
21361;BME280;10839;43.206;23.550;2023-05-09T02:35:02;97641.84;;;12.44;100.00
21361;BME280;10839;43.206;23.550;2023-05-09T02:37:29;97638.25;;;12.58;100.00
21361;BME280;10839;43.206;23.550;2023-05-09T02:39:55;97638.72;;;12.68;100.00
21361;BME280;10839;43.206;23.550;2023-05-09T02:42:23;97641.28;;;12.76;100.00
21361;BME280;10839;43.206;23.550;2023-05-09T02:44:54;97646.19;;;12.66;100.00
21361;BME280;10839;43.206;23.550;2023-05-09T02:47:21;97638.50;;;12.63;100.00
21361;BME280;10839;43.206;23.550;2023-05-09T02:49:47;97645.91;;;12.82;100.00
21361;BME280;10839;43.206;23.550;2023-05-09T02:52:14;97641.38;;;12.89;100.00
21361;BME280;10839;43.206;23.550;2023-05-09T02:54:40;97642.97;;;12.77;100.00
21361;BME280;10839;43.206;23.550;2023-05-09T02:57:06;97639.22;;;12.78;100.00
21361;BME280;10839;43.206;23.550;2023-05-09T02:59:32;97641.72;;;12.80;100.00
21361;BME280;10839;43.206;23.550;2023-05-09T03:02:01;97639.22;;;12.78;100.00
21361;BME280;10839;43.206;23.550;2023-05-09T03:04:28;97638.28;;;12.37;100.00
21361;BME280;10839;43.206;23.550;2023-05-09T03:06:53;97634.50;;;12.59;100.00
21361;BME280;10839;43.206;23.550;2023-05-09T03:09:20;97646.59;;;12.63;100.00
21361;BME280;10839;43.206;23.550;2023-05-09T03:11:46;97653.19;;;12.61;100.00
21361;BME280;10839;43.206;23.550;2023-05-09T03:14:12;97660.47;;;12.60;100.00
21361;BME280;10839;43.206;23.550;2023-05-09T03:16:39;97661.13;;;12.62;100.00
21361;BME280;10839;43.206;23.550;2023-05-09T03:19:13;97669.47;;;12.67;100.00
21361;BME280;10839;43.206;23.550;2023-05-09T03:21:38;97677.31;;;12.62;100.00
21361;BME280;10839;43.206;23.550;2023-05-09T03:24:06;97674.75;;;12.54;100.00
21361;BME280;10839;43.206;23.550;2023-05-09T03:26:32;97678.59;;;12.66;100.00
21361;BME280;10839;43.206;23.550;2023-05-09T03:29:01;97682.97;;;12.46;100.00
21361;BME280;10839;43.206;23.550;2023-05-09T03:31:27;97690.06;;;12.47;100.00
21361;BME280;10839;43.206;23.550;2023-05-09T03:33:53;97682.88;;;12.61;100.00
21361;BME280;10839;43.206;23.550;2023-05-09T03:36:19;97691.59;;;12.56;100.00
21361;BME280;10839;43.206;23.550;2023-05-09T03:38:45;97695.97;;;12.57;100.00
21361;BME280;10839;43.206;23.550;2023-05-09T03:41:13;97690.94;;;12.54;100.00
21361;BME280;10839;43.206;23.550;2023-05-09T03:43:39;97694.72;;;12.60;100.00
21361;BME280;10839;43.206;23.550;2023-05-09T03:46:05;97691.38;;;12.58;100.00
21361;BME280;10839;43.206;23.550;2023-05-09T03:48:31;97687.56;;;12.46;100.00
21361;BME280;10839;43.206;23.550;2023-05-09T03:50:57;97703.94;;;12.23;100.00
21361;BME280;10839;43.206;23.550;2023-05-09T03:53:26;97702.00;;;12.38;100.00
21361;BME280;10839;43.206;23.550;2023-05-09T03:55:53;97696.22;;;12.41;100.00
21361;BME280;10839;43.206;23.550;2023-05-09T03:58:19;97708.63;;;12.57;100.00
21361;BME280;10839;43.206;23.550;2023-05-09T04:00:46;97701.78;;;12.61;100.00
21361;BME280;10839;43.206;23.550;2023-05-09T04:03:19;97699.03;;;12.33;100.00
21361;BME280;10839;43.206;23.550;2023-05-09T04:05:47;97715.25;;;12.33;100.00
21361;BME280;10839;43.206;23.550;2023-05-09T04:08:33;97715.16;;;12.48;100.00
21361;BME280;10839;43.206;23.550;2023-05-09T04:11:01;97717.34;;;12.38;100.00
21361;BME280;10839;43.206;23.550;2023-05-09T04:13:28;97720.06;;;12.59;100.00
21361;BME280;10839;43.206;23.550;2023-05-09T04:15:56;97717.13;;;12.54;100.00
21361;BME280;10839;43.206;23.550;2023-05-09T04:18:24;97721.03;;;12.30;100.00
21361;BME280;10839;43.206;23.550;2023-05-09T04:20:49;97716.16;;;12.40;100.00
21361;BME280;10839;43.206;23.550;2023-05-09T04:23:16;97725.25;;;12.39;100.00
21361;BME280;10839;43.206;23.550;2023-05-09T04:25:42;97728.66;;;12.48;100.00
21361;BME280;10839;43.206;23.550;2023-05-09T04:28:08;97728.88;;;12.46;100.00
21361;BME280;10839;43.206;23.550;2023-05-09T04:30:35;97725.72;;;12.43;100.00
21361;BME280;10839;43.206;23.550;2023-05-09T04:33:01;97730.38;;;12.34;100.00
21361;BME280;10839;43.206;23.550;2023-05-09T04:35:28;97719.91;;;12.25;100.00
21361;BME280;10839;43.206;23.550;2023-05-09T04:37:55;97731.28;;;12.20;100.00
21361;BME280;10839;43.206;23.550;2023-05-09T04:40:22;97732.72;;;12.02;100.00
21361;BME280;10839;43.206;23.550;2023-05-09T04:42:54;97735.63;;;12.00;100.00
21361;BME280;10839;43.206;23.550;2023-05-09T04:45:24;97727.34;;;12.23;100.00
21361;BME280;10839;43.206;23.550;2023-05-09T04:47:50;97737.06;;;12.17;100.00
21361;BME280;10839;43.206;23.550;2023-05-09T04:50:16;97741.56;;;12.10;100.00
21361;BME280;10839;43.206;23.550;2023-05-09T04:52:42;97745.56;;;12.14;100.00
21361;BME280;10839;43.206;23.550;2023-05-09T04:55:08;97746.03;;;12.03;100.00
21361;BME280;10839;43.206;23.550;2023-05-09T04:57:38;97748.59;;;12.11;100.00
21361;BME280;10839;43.206;23.550;2023-05-09T05:00:06;97744.66;;;12.28;100.00
21361;BME280;10839;43.206;23.550;2023-05-09T05:02:33;97739.91;;;12.30;100.00
21361;BME280;10839;43.206;23.550;2023-05-09T05:04:59;97754.69;;;12.34;100.00
21361;BME280;10839;43.206;23.550;2023-05-09T05:07:26;97749.38;;;12.05;100.00
21361;BME280;10839;43.206;23.550;2023-05-09T05:09:52;97755.81;;;12.04;100.00
21361;BME280;10839;43.206;23.550;2023-05-09T05:12:17;97748.00;;;11.95;100.00
21361;BME280;10839;43.206;23.550;2023-05-09T05:14:44;97746.25;;;11.87;100.00
21361;BME280;10839;43.206;23.550;2023-05-09T05:17:14;97754.84;;;12.12;100.00
21361;BME280;10839;43.206;23.550;2023-05-09T05:19:42;97739.38;;;12.20;100.00
21361;BME280;10839;43.206;23.550;2023-05-09T05:22:07;97756.09;;;12.09;100.00
21361;BME280;10839;43.206;23.550;2023-05-09T05:24:36;97751.03;;;12.06;100.00
21361;BME280;10839;43.206;23.550;2023-05-09T05:27:02;97752.50;;;12.23;100.00
21361;BME280;10839;43.206;23.550;2023-05-09T05:29:28;97750.31;;;12.12;100.00
21361;BME280;10839;43.206;23.550;2023-05-09T05:31:54;97754.00;;;12.11;100.00
21361;BME280;10839;43.206;23.550;2023-05-09T05:34:20;97764.06;;;12.17;100.00
21361;BME280;10839;43.206;23.550;2023-05-09T05:36:46;97769.75;;;12.43;100.00
21361;BME280;10839;43.206;23.550;2023-05-09T05:39:12;97763.44;;;12.36;100.00
21361;BME280;10839;43.206;23.550;2023-05-09T05:41:38;97756.56;;;12.34;100.00
21361;BME280;10839;43.206;23.550;2023-05-09T05:44:05;97760.47;;;12.31;100.00
21361;BME280;10839;43.206;23.550;2023-05-09T05:46:32;97764.72;;;12.40;100.00
21361;BME280;10839;43.206;23.550;2023-05-09T05:48:58;97770.13;;;12.40;100.00
21361;BME280;10839;43.206;23.550;2023-05-09T05:51:24;97775.28;;;12.56;100.00
21361;BME280;10839;43.206;23.550;2023-05-09T05:53:50;97769.44;;;12.17;100.00
21361;BME280;10839;43.206;23.550;2023-05-09T05:56:17;97770.03;;;11.98;100.00
21361;BME280;10839;43.206;23.550;2023-05-09T05:58:43;97776.19;;;12.28;100.00
21361;BME280;10839;43.206;23.550;2023-05-09T06:01:09;97781.97;;;12.25;100.00
21361;BME280;10839;43.206;23.550;2023-05-09T06:03:34;97778.94;;;12.13;100.00
21361;BME280;10839;43.206;23.550;2023-05-09T06:06:04;97776.78;;;12.23;100.00
21361;BME280;10839;43.206;23.550;2023-05-09T06:08:30;97774.22;;;12.36;100.00
21361;BME280;10839;43.206;23.550;2023-05-09T06:10:57;97782.19;;;12.44;100.00
21361;BME280;10839;43.206;23.550;2023-05-09T06:13:25;97782.81;;;12.25;100.00
21361;BME280;10839;43.206;23.550;2023-05-09T06:15:56;97781.25;;;12.31;100.00
21361;BME280;10839;43.206;23.550;2023-05-09T06:18:22;97779.41;;;12.52;100.00
21361;BME280;10839;43.206;23.550;2023-05-09T06:20:48;97782.19;;;12.44;100.00
21361;BME280;10839;43.206;23.550;2023-05-09T06:23:14;97780.00;;;12.33;100.00
21361;BME280;10839;43.206;23.550;2023-05-09T06:25:39;97793.06;;;12.15;100.00
21361;BME280;10839;43.206;23.550;2023-05-09T06:28:05;97795.16;;;12.34;100.00
21361;BME280;10839;43.206;23.550;2023-05-09T06:30:31;97789.28;;;12.45;100.00
21361;BME280;10839;43.206;23.550;2023-05-09T06:32:57;97785.53;;;12.46;100.00
21361;BME280;10839;43.206;23.550;2023-05-09T06:35:24;97796.06;;;12.41;100.00
21361;BME280;10839;43.206;23.550;2023-05-09T06:37:50;97796.47;;;12.59;100.00
21361;BME280;10839;43.206;23.550;2023-05-09T06:40:16;97798.50;;;12.51;100.00
21361;BME280;10839;43.206;23.550;2023-05-09T06:42:41;97784.63;;;12.39;100.00
21361;BME280;10839;43.206;23.550;2023-05-09T06:45:07;97796.84;;;12.35;100.00
21361;BME280;10839;43.206;23.550;2023-05-09T06:47:33;97786.84;;;12.50;100.00
21361;BME280;10839;43.206;23.550;2023-05-09T06:49:59;97786.53;;;12.60;100.00
21361;BME280;10839;43.206;23.550;2023-05-09T06:52:25;97789.03;;;12.61;100.00
21361;BME280;10839;43.206;23.550;2023-05-09T06:54:50;97786.47;;;12.74;100.00
21361;BME280;10839;43.206;23.550;2023-05-09T06:57:17;97779.13;;;12.68;100.00
21361;BME280;10839;43.206;23.550;2023-05-09T06:59:43;97785.66;;;12.74;100.00
21361;BME280;10839;43.206;23.550;2023-05-09T07:02:09;97785.72;;;12.80;100.00
21361;BME280;10839;43.206;23.550;2023-05-09T07:04:36;97785.19;;;12.92;100.00
21361;BME280;10839;43.206;23.550;2023-05-09T07:07:01;97789.28;;;12.87;100.00
21361;BME280;10839;43.206;23.550;2023-05-09T07:09:27;97787.63;;;12.86;100.00
21361;BME280;10839;43.206;23.550;2023-05-09T07:11:56;97789.06;;;13.04;100.00
21361;BME280;10839;43.206;23.550;2023-05-09T07:14:22;97790.06;;;13.03;100.00
21361;BME280;10839;43.206;23.550;2023-05-09T07:16:48;97794.94;;;13.07;100.00
21361;BME280;10839;43.206;23.550;2023-05-09T07:19:13;97791.81;;;13.10;100.00
21361;BME280;10839;43.206;23.550;2023-05-09T07:21:39;97788.53;;;13.15;100.00
21361;BME280;10839;43.206;23.550;2023-05-09T07:24:05;97795.38;;;13.11;100.00
21361;BME280;10839;43.206;23.550;2023-05-09T07:26:31;97782.47;;;13.13;100.00
21361;BME280;10839;43.206;23.550;2023-05-09T07:28:57;97793.72;;;13.16;100.00
21361;BME280;10839;43.206;23.550;2023-05-09T07:31:23;97790.63;;;12.98;100.00
21361;BME280;10839;43.206;23.550;2023-05-09T07:33:48;97794.72;;;13.09;100.00
21361;BME280;10839;43.206;23.550;2023-05-09T07:36:14;97803.22;;;13.06;100.00
21361;BME280;10839;43.206;23.550;2023-05-09T07:38:41;97788.13;;;13.18;100.00
21361;BME280;10839;43.206;23.550;2023-05-09T07:41:07;97787.00;;;13.06;100.00
21361;BME280;10839;43.206;23.550;2023-05-09T07:43:33;97792.63;;;12.89;100.00
21361;BME280;10839;43.206;23.550;2023-05-09T07:45:59;97798.69;;;12.92;100.00
21361;BME280;10839;43.206;23.550;2023-05-09T07:48:26;97798.63;;;13.06;100.00
21361;BME280;10839;43.206;23.550;2023-05-09T07:50:52;97798.69;;;13.13;100.00
21361;BME280;10839;43.206;23.550;2023-05-09T07:53:18;97798.69;;;13.13;100.00
21361;BME280;10839;43.206;23.550;2023-05-09T07:55:44;97799.69;;;13.33;100.00
21361;BME280;10839;43.206;23.550;2023-05-09T07:58:12;97798.63;;;13.06;100.00
21361;BME280;10839;43.206;23.550;2023-05-09T08:00:37;97804.75;;;12.94;100.00
21361;BME280;10839;43.206;23.550;2023-05-09T08:03:03;97799.59;;;13.20;100.00
21361;BME280;10839;43.206;23.550;2023-05-09T08:05:29;97811.94;;;13.08;100.00
21361;BME280;10839;43.206;23.550;2023-05-09T08:07:55;97800.59;;;12.98;100.00
21361;BME280;10839;43.206;23.550;2023-05-09T08:10:20;97798.38;;;13.22;100.00
21361;BME280;10839;43.206;23.550;2023-05-09T08:12:48;97805.19;;;13.46;100.00
21361;BME280;10839;43.206;23.550;2023-05-09T08:15:13;97804.72;;;13.36;100.00
21361;BME280;10839;43.206;23.550;2023-05-09T08:17:39;97802.59;;;13.31;100.00
21361;BME280;10839;43.206;23.550;2023-05-09T08:20:05;97807.00;;;13.32;100.00
21361;BME280;10839;43.206;23.550;2023-05-09T08:22:32;97809.63;;;13.26;100.00
21361;BME280;10839;43.206;23.550;2023-05-09T08:24:58;97802.63;;;13.38;100.00
21361;BME280;10839;43.206;23.550;2023-05-09T08:27:24;97809.34;;;13.42;100.00
21361;BME280;10839;43.206;23.550;2023-05-09T08:29:50;97810.59;;;13.46;100.00
21361;BME280;10839;43.206;23.550;2023-05-09T08:32:16;97815.53;;;13.36;100.00
21361;BME280;10839;43.206;23.550;2023-05-09T08:34:44;97812.28;;;13.47;100.00
21361;BME280;10839;43.206;23.550;2023-05-09T08:37:10;97807.00;;;13.11;100.00
21361;BME280;10839;43.206;23.550;2023-05-09T08:39:36;97809.88;;;13.31;100.00
21361;BME280;10839;43.206;23.550;2023-05-09T08:42:02;97812.34;;;13.26;100.00
21361;BME280;10839;43.206;23.550;2023-05-09T08:44:29;97809.13;;;13.16;100.00
21361;BME280;10839;43.206;23.550;2023-05-09T08:46:58;97800.47;;;12.84;100.00
21361;BME280;10839;43.206;23.550;2023-05-09T08:49:24;97808.69;;;12.98;100.00
21361;BME280;10839;43.206;23.550;2023-05-09T08:51:51;97809.16;;;12.80;100.00
21361;BME280;10839;43.206;23.550;2023-05-09T08:54:18;97819.44;;;13.06;100.00
21361;BME280;10839;43.206;23.550;2023-05-09T08:56:45;97812.13;;;12.85;100.00
21361;BME280;10839;43.206;23.550;2023-05-09T08:59:12;97813.38;;;12.82;100.00
21361;BME280;10839;43.206;23.550;2023-05-09T09:01:39;97811.34;;;12.91;100.00
21361;BME280;10839;43.206;23.550;2023-05-09T09:04:07;97809.00;;;13.03;100.00
21361;BME280;10839;43.206;23.550;2023-05-09T09:06:34;97814.53;;;13.16;100.00
21361;BME280;10839;43.206;23.550;2023-05-09T09:09:00;97813.25;;;13.12;100.00
21361;BME280;10839;43.206;23.550;2023-05-09T09:11:29;97814.41;;;13.03;100.00
21361;BME280;10839;43.206;23.550;2023-05-09T09:14:00;97822.41;;;13.11;100.00
21361;BME280;10839;43.206;23.550;2023-05-09T09:16:28;97811.03;;;13.49;100.00
21361;BME280;10839;43.206;23.550;2023-05-09T09:18:55;97818.97;;;13.02;100.00
21361;BME280;10839;43.206;23.550;2023-05-09T09:21:22;97820.31;;;13.13;100.00
21361;BME280;10839;43.206;23.550;2023-05-09T09:23:48;97817.34;;;13.08;100.00
21361;BME280;10839;43.206;23.550;2023-05-09T09:26:15;97811.34;;;13.06;100.00
21361;BME280;10839;43.206;23.550;2023-05-09T09:28:41;97815.28;;;13.10;100.00
21361;BME280;10839;43.206;23.550;2023-05-09T09:31:24;97812.59;;;12.88;100.00
21361;BME280;10839;43.206;23.550;2023-05-09T09:33:50;97808.59;;;12.63;100.00
21361;BME280;10839;43.206;23.550;2023-05-09T09:36:26;97807.19;;;12.67;100.00
21361;BME280;10839;43.206;23.550;2023-05-09T09:38:59;97813.72;;;12.79;100.00
21361;BME280;10839;43.206;23.550;2023-05-09T09:41:30;97806.28;;;12.81;100.00
21361;BME280;10839;43.206;23.550;2023-05-09T09:43:56;97811.41;;;12.76;100.00
21361;BME280;10839;43.206;23.550;2023-05-09T09:46:23;97807.31;;;12.80;100.00
21361;BME280;10839;43.206;23.550;2023-05-09T09:48:49;97814.38;;;12.81;100.00
21361;BME280;10839;43.206;23.550;2023-05-09T09:51:20;97818.88;;;12.74;100.00
21361;BME280;10839;43.206;23.550;2023-05-09T09:53:46;97823.44;;;12.95;100.00
21361;BME280;10839;43.206;23.550;2023-05-09T09:56:12;97819.38;;;12.63;100.00
21361;BME280;10839;43.206;23.550;2023-05-09T09:58:38;97827.34;;;12.71;100.00
21361;BME280;10839;43.206;23.550;2023-05-09T10:01:11;97818.47;;;12.56;100.00
21361;BME280;10839;43.206;23.550;2023-05-09T10:03:45;97816.75;;;12.70;100.00
21361;BME280;10839;43.206;23.550;2023-05-09T10:06:13;97814.69;;;12.72;100.00
21361;BME280;10839;43.206;23.550;2023-05-09T10:08:40;97818.59;;;12.69;100.00
21361;BME280;10839;43.206;23.550;2023-05-09T10:11:06;97803.88;;;12.51;100.00
21361;BME280;10839;43.206;23.550;2023-05-09T10:13:34;97815.50;;;12.51;100.00
21361;BME280;10839;43.206;23.550;2023-05-09T10:16:02;97813.13;;;12.42;100.00
21361;BME280;10839;43.206;23.550;2023-05-09T10:18:29;97818.97;;;12.45;100.00
21361;BME280;10839;43.206;23.550;2023-05-09T10:20:57;97813.25;;;12.55;100.00
21361;BME280;10839;43.206;23.550;2023-05-09T10:23:29;97817.19;;;12.52;100.00
21361;BME280;10839;43.206;23.550;2023-05-09T10:26:04;97823.88;;;12.56;100.00
21361;BME280;10839;43.206;23.550;2023-05-09T10:28:32;97809.72;;;12.54;100.00
21361;BME280;10839;43.206;23.550;2023-05-09T10:31:22;97821.03;;;12.64;100.00
21361;BME280;10839;43.206;23.550;2023-05-09T10:33:50;97807.66;;;12.56;100.00
21361;BME280;10839;43.206;23.550;2023-05-09T10:36:19;97806.91;;;12.62;100.00
21361;BME280;10839;43.206;23.550;2023-05-09T10:38:54;97804.09;;;12.70;100.00
21361;BME280;10839;43.206;23.550;2023-05-09T10:41:21;97813.69;;;13.15;100.00
21361;BME280;10839;43.206;23.550;2023-05-09T10:43:48;97807.97;;;12.82;100.00
21361;BME280;10839;43.206;23.550;2023-05-09T10:46:14;97811.88;;;12.59;100.00
21361;BME280;10839;43.206;23.550;2023-05-09T10:48:42;97803.78;;;12.80;100.00
21361;BME280;10839;43.206;23.550;2023-05-09T10:51:09;97817.59;;;12.92;100.00
21361;BME280;10839;43.206;23.550;2023-05-09T10:53:44;97818.75;;;12.82;100.00
21361;BME280;10839;43.206;23.550;2023-05-09T10:56:27;97809.00;;;13.03;100.00
21361;BME280;10839;43.206;23.550;2023-05-09T10:58:53;97821.22;;;13.20;100.00
21361;BME280;10839;43.206;23.550;2023-05-09T11:01:33;97816.31;;;13.30;100.00
21361;BME280;10839;43.206;23.550;2023-05-09T11:04:15;97823.25;;;13.18;100.00
21361;BME280;10839;43.206;23.550;2023-05-09T11:12:10;97809.00;;;13.03;100.00
21361;BME280;10839;43.206;23.550;2023-05-09T11:17:14;97822.00;;;13.14;100.00
21361;BME280;10839;43.206;23.550;2023-05-09T11:22:27;97815.69;;;13.07;100.00
21361;BME280;10839;43.206;23.550;2023-05-09T11:25:11;97815.41;;;13.23;100.00
21361;BME280;10839;43.206;23.550;2023-05-09T11:27:48;97814.44;;;13.30;100.00
21361;BME280;10839;43.206;23.550;2023-05-09T11:30:16;97812.59;;;13.31;100.00
21361;BME280;10839;43.206;23.550;2023-05-09T11:32:49;97811.41;;;13.40;100.00
21361;BME280;10839;43.206;23.550;2023-05-09T11:35:17;97810.22;;;13.49;100.00
21361;BME280;10839;43.206;23.550;2023-05-09T11:37:49;97811.88;;;13.50;100.00
21361;BME280;10839;43.206;23.550;2023-05-09T11:40:18;97819.25;;;13.35;100.00
21361;BME280;10839;43.206;23.550;2023-05-09T11:42:46;97814.66;;;13.29;100.00
21361;BME280;10839;43.206;23.550;2023-05-09T11:45:13;97818.13;;;13.50;100.00
21361;BME280;10839;43.206;23.550;2023-05-09T11:47:39;97818.25;;;13.36;100.00
21361;BME280;10839;43.206;23.550;2023-05-09T11:50:10;97817.16;;;13.30;100.00
21361;BME280;10839;43.206;23.550;2023-05-09T11:52:36;97815.03;;;13.05;100.00
21361;BME280;10839;43.206;23.550;2023-05-09T11:55:07;97810.53;;;12.91;100.00
21361;BME280;10839;43.206;23.550;2023-05-09T11:57:34;97807.63;;;12.92;100.00
21361;BME280;10839;43.206;23.550;2023-05-09T12:00:01;97808.53;;;12.99;100.00
21361;BME280;10839;43.206;23.550;2023-05-09T12:02:31;97811.88;;;13.01;100.00
21361;BME280;10839;43.206;23.550;2023-05-09T12:05:10;97810.28;;;13.07;100.00
21361;BME280;10839;43.206;23.550;2023-05-09T12:07:37;97807.34;;;13.02;100.00
21361;BME280;10839;43.206;23.550;2023-05-09T12:10:08;97799.16;;;12.38;100.00
21361;BME280;10839;43.206;23.550;2023-05-09T12:12:35;97806.91;;;12.27;100.00
21361;BME280;10839;43.206;23.550;2023-05-09T12:15:05;97797.72;;;12.21;100.00
21361;BME280;10839;43.206;23.550;2023-05-09T12:17:31;97800.81;;;12.39;100.00
21361;BME280;10839;43.206;23.550;2023-05-09T12:19:58;97801.28;;;12.43;100.00
21361;BME280;10839;43.206;23.550;2023-05-09T12:22:26;97799.44;;;12.43;100.00
21361;BME280;10839;43.206;23.550;2023-05-09T12:24:53;97792.78;;;12.60;100.00
21361;BME280;10839;43.206;23.550;2023-05-09T12:27:19;97792.13;;;12.79;100.00
21361;BME280;10839;43.206;23.550;2023-05-09T12:29:45;97788.53;;;12.72;100.00
21361;BME280;10839;43.206;23.550;2023-05-09T12:32:15;97794.63;;;12.81;100.00
21361;BME280;10839;43.206;23.550;2023-05-09T12:34:42;97786.03;;;12.14;100.00
21361;BME280;10839;43.206;23.550;2023-05-09T12:37:19;97784.88;;;12.23;100.00
21361;BME280;10839;43.206;23.550;2023-05-09T12:40:11;97779.41;;;12.52;100.00
21361;BME280;10839;43.206;23.550;2023-05-09T12:42:43;97779.63;;;12.36;100.00
21361;BME280;10839;43.206;23.550;2023-05-09T12:45:09;97775.75;;;12.24;100.00
21361;BME280;10839;43.206;23.550;2023-05-09T12:47:36;97776.91;;;11.86;100.00
21361;BME280;10839;43.206;23.550;2023-05-09T12:50:05;97780.81;;;11.98;100.00
21361;BME280;10839;43.206;23.550;2023-05-09T12:52:39;97773.22;;;11.87;100.00
21361;BME280;10839;43.206;23.550;2023-05-09T12:55:07;97760.09;;;11.26;100.00
21361;BME280;10839;43.206;23.550;2023-05-09T12:57:33;97759.94;;;11.05;100.00
21361;BME280;10839;43.206;23.550;2023-05-09T12:59:59;97761.25;;;11.09;100.00
21361;BME280;10839;43.206;23.550;2023-05-09T13:02:26;97755.59;;;11.33;100.00
21361;BME280;10839;43.206;23.550;2023-05-09T13:05:21;97763.34;;;11.36;100.00
21361;BME280;10839;43.206;23.550;2023-05-09T13:07:49;97757.97;;;11.36;100.00
21361;BME280;10839;43.206;23.550;2023-05-09T13:10:19;97756.72;;;11.53;100.00
21361;BME280;10839;43.206;23.550;2023-05-09T13:12:48;97753.41;;;11.80;100.00